createdAt,value
2023-04-15T00:01:48.477Z,7.47
2023-04-15T00:04:16.809Z,8.13
2023-04-15T00:06:53.875Z,8.43
2023-04-15T00:09:24.507Z,8.97
2023-04-15T00:11:53.489Z,8.83
2023-04-15T00:14:22.788Z,7.93
2023-04-15T00:16:56.633Z,9.60
2023-04-15T00:19:26.238Z,8.80
2023-04-15T00:21:55.299Z,7.90
2023-04-15T00:24:24.743Z,7.90
2023-04-15T00:26:54.253Z,7.60
2023-04-15T00:29:22.163Z,8.10
2023-04-15T00:31:49.834Z,7.93
2023-04-15T00:34:17.776Z,7.67
2023-04-15T00:36:45.434Z,8.50
2023-04-15T00:39:13.000Z,8.50
2023-04-15T00:41:40.667Z,7.47
2023-04-15T00:44:09.586Z,8.70
2023-04-15T00:46:39.971Z,8.27
2023-04-15T00:49:08.254Z,9.17
2023-04-15T00:51:39.000Z,8.77
2023-04-15T00:54:09.030Z,7.70
2023-04-15T00:56:39.498Z,8.53
2023-04-15T00:59:08.065Z,8.80
2023-04-15T01:01:38.978Z,8.07
2023-04-15T01:04:07.330Z,8.27
2023-04-15T01:06:35.058Z,8.50
2023-04-15T01:09:03.516Z,7.80
2023-04-15T01:11:34.436Z,8.43
2023-04-15T01:14:03.636Z,8.40
2023-04-15T01:16:32.157Z,8.43
2023-04-15T01:19:00.430Z,8.20
2023-04-15T01:21:28.245Z,6.90
2023-04-15T01:23:58.045Z,8.10
2023-04-15T01:26:26.592Z,8.50
2023-04-15T01:28:54.983Z,7.87
2023-04-15T01:31:23.029Z,8.40
2023-04-15T01:33:50.771Z,7.83
2023-04-15T01:36:18.737Z,7.63
2023-04-15T01:38:46.517Z,7.80
2023-04-15T01:41:15.522Z,8.30
2023-04-15T01:43:43.153Z,8.23
2023-04-15T01:46:11.287Z,8.73
2023-04-15T01:48:38.866Z,8.00
2023-04-15T01:51:06.677Z,7.90
2023-04-15T01:53:34.463Z,8.63
2023-04-15T01:56:03.465Z,7.30
2023-04-15T01:58:31.657Z,8.53
2023-04-15T02:01:00.062Z,8.20
2023-04-15T02:03:29.812Z,8.20
2023-04-15T02:05:57.835Z,8.80
2023-04-15T02:08:25.691Z,8.20
2023-04-15T02:10:53.352Z,7.27
2023-04-15T02:13:20.979Z,8.73
2023-04-15T02:15:52.645Z,9.73
2023-04-15T02:18:20.696Z,8.27
2023-04-15T02:20:48.904Z,8.23
2023-04-15T02:23:16.913Z,8.77
2023-04-15T02:25:53.580Z,7.77
2023-04-15T02:28:22.495Z,8.90
2023-04-15T02:30:54.453Z,9.00
2023-04-15T02:33:22.464Z,8.47
2023-04-15T02:35:50.041Z,7.97
2023-04-15T02:38:18.094Z,9.50
2023-04-15T02:40:46.245Z,9.03
2023-04-15T02:43:13.921Z,9.80
2023-04-15T02:45:43.643Z,8.87
2023-04-15T02:48:11.662Z,8.70
2023-04-15T02:50:40.805Z,8.60
2023-04-15T02:53:10.627Z,10.70
2023-04-15T02:55:38.292Z,7.73
2023-04-15T02:58:05.899Z,8.43
2023-04-15T03:00:34.900Z,8.90
2023-04-15T03:03:06.851Z,9.97
2023-04-15T03:05:34.661Z,9.13
2023-04-15T03:08:04.878Z,9.33
2023-04-15T03:10:32.816Z,9.33
2023-04-15T03:13:05.324Z,9.50
2023-04-15T03:15:33.884Z,10.53
2023-04-15T03:18:02.209Z,9.43
2023-04-15T03:20:29.881Z,9.33
2023-04-15T03:22:57.585Z,10.00
2023-04-15T03:25:26.439Z,9.17
2023-04-15T03:27:54.032Z,10.20
2023-04-15T03:30:22.167Z,9.43
2023-04-15T03:32:49.883Z,11.40
2023-04-15T03:35:17.739Z,10.83
2023-04-15T03:37:45.345Z,11.30
2023-04-15T03:40:13.491Z,10.97
2023-04-15T03:42:41.719Z,9.90
2023-04-15T03:45:10.321Z,11.23
2023-04-15T03:47:37.985Z,11.80
2023-04-15T03:50:07.402Z,9.80
2023-04-15T03:52:35.867Z,10.20
2023-04-15T03:55:03.728Z,10.07
2023-04-15T03:57:31.499Z,9.70
2023-04-15T03:59:59.048Z,11.00
2023-04-15T04:02:28.436Z,10.90
2023-04-15T04:04:56.344Z,10.50
2023-04-15T04:07:25.209Z,12.10
2023-04-15T04:09:53.045Z,11.57
2023-04-15T04:12:21.070Z,11.33
2023-04-15T04:14:48.803Z,11.40
2023-04-15T04:17:16.370Z,10.90
2023-04-15T04:19:43.950Z,11.00
2023-04-15T04:22:11.507Z,12.13
2023-04-15T04:24:39.056Z,10.90
2023-04-15T04:27:06.708Z,11.30
2023-04-15T04:29:34.313Z,10.37
2023-04-15T04:32:02.072Z,11.87
2023-04-15T04:34:29.714Z,11.93
2023-04-15T04:36:57.853Z,11.70
2023-04-15T04:39:26.117Z,12.37
2023-04-15T04:41:53.830Z,12.77
2023-04-15T04:44:22.258Z,12.90
2023-04-15T04:46:50.017Z,11.97
2023-04-15T04:49:17.497Z,13.30
2023-04-15T04:51:45.394Z,12.03
2023-04-15T04:54:13.044Z,12.80
2023-04-15T04:56:40.595Z,11.67
2023-04-15T04:59:08.321Z,12.50
2023-04-15T05:01:36.228Z,12.40
2023-04-15T05:04:05.406Z,13.83
2023-04-15T05:06:33.974Z,13.90
2023-04-15T05:09:03.573Z,13.00
2023-04-15T05:11:31.586Z,14.10
2023-04-15T05:14:01.746Z,13.33
2023-04-15T05:16:29.492Z,12.73
2023-04-15T05:18:57.138Z,14.43
2023-04-15T05:21:24.860Z,13.40
2023-04-15T05:23:52.680Z,14.00
2023-04-15T05:26:21.736Z,15.50
2023-04-15T05:28:49.838Z,14.30
2023-04-15T05:31:17.749Z,14.43
2023-04-15T05:33:45.388Z,15.30
2023-04-15T05:36:12.966Z,14.90
2023-04-15T05:38:41.083Z,15.13
2023-04-15T05:41:09.558Z,15.60
2023-04-15T05:43:37.172Z,15.97
2023-04-15T05:46:05.647Z,14.83
2023-04-15T05:48:33.188Z,14.00
2023-04-15T05:51:01.898Z,13.10
2023-04-15T05:53:29.463Z,14.70
2023-04-15T05:55:57.282Z,13.10
2023-04-15T05:58:24.841Z,13.00
2023-04-15T06:00:52.799Z,13.23
2023-04-15T06:03:20.605Z,12.73
2023-04-15T06:05:48.483Z,14.13
2023-04-15T06:08:16.124Z,13.80
2023-04-15T06:10:43.814Z,12.37
2023-04-15T06:13:11.459Z,13.17
2023-04-15T06:15:39.033Z,12.90
2023-04-15T06:18:06.618Z,13.23
2023-04-15T06:20:34.449Z,12.50
2023-04-15T06:23:02.060Z,12.80
2023-04-15T06:25:29.692Z,13.53
2023-04-15T06:27:57.306Z,13.40
2023-04-15T06:30:24.965Z,11.93
2023-04-15T06:32:52.757Z,12.60
2023-04-15T06:35:20.528Z,13.80
2023-04-15T06:37:48.111Z,11.70
2023-04-15T06:40:15.777Z,12.27
2023-04-15T06:42:43.458Z,12.20
2023-04-15T06:45:12.155Z,12.00
2023-04-15T06:47:39.943Z,10.90
2023-04-15T06:50:09.430Z,9.73
2023-04-15T06:52:37.271Z,10.47
2023-04-15T06:55:05.942Z,11.10
2023-04-15T06:57:35.056Z,8.90
2023-04-15T07:00:05.840Z,9.30
2023-04-15T07:02:34.350Z,9.43
2023-04-15T07:05:01.995Z,9.00
2023-04-15T07:07:29.717Z,9.57
2023-04-15T07:09:57.447Z,9.03
2023-04-15T07:12:26.415Z,9.83
2023-04-15T07:14:54.095Z,9.83
2023-04-15T07:17:22.461Z,10.17
2023-04-15T07:19:50.198Z,9.33
2023-04-15T07:22:17.915Z,6.40
2023-04-15T07:24:45.998Z,9.30
2023-04-15T07:27:13.589Z,9.80
2023-04-15T07:29:41.460Z,8.53
2023-04-15T07:32:10.597Z,7.23
2023-04-15T07:34:43.052Z,7.60
2023-04-15T07:37:15.866Z,7.60
2023-04-15T07:39:49.514Z,6.73
2023-04-15T07:42:23.472Z,7.10
2023-04-15T07:44:56.639Z,6.77
2023-04-15T07:47:39.038Z,7.90
2023-04-15T07:50:13.092Z,7.17
2023-04-15T07:52:58.085Z,7.70
2023-04-15T07:55:32.042Z,9.23
2023-04-15T07:58:13.502Z,7.90
2023-04-15T08:00:46.080Z,7.23
2023-04-15T08:03:18.952Z,5.10
2023-04-15T08:06:00.042Z,5.20
2023-04-15T08:08:32.719Z,5.27
2023-04-15T08:11:06.977Z,5.10
2023-04-15T08:13:41.477Z,5.37
2023-04-15T08:16:34.383Z,6.10
2023-04-15T08:19:07.808Z,6.70
2023-04-15T08:21:42.153Z,6.80
2023-04-15T08:24:17.506Z,6.17
2023-04-15T08:26:52.448Z,7.37
2023-04-15T08:29:28.600Z,5.77
2023-04-15T08:32:06.068Z,5.30
2023-04-15T08:34:48.485Z,6.03
2023-04-15T08:37:19.043Z,5.80
2023-04-15T08:39:46.839Z,5.23
2023-04-15T08:42:27.961Z,5.60
2023-04-15T08:44:56.877Z,5.50
2023-04-15T08:47:32.290Z,6.93
2023-04-15T08:50:04.521Z,5.63
2023-04-15T08:52:33.121Z,6.60
2023-04-15T08:55:04.975Z,6.37
2023-04-15T08:57:36.148Z,7.37
2023-04-15T09:00:06.791Z,6.93
2023-04-15T09:02:34.801Z,6.13
2023-04-15T09:05:06.451Z,5.67
2023-04-15T09:07:37.362Z,5.50
2023-04-15T09:10:06.856Z,5.23
2023-04-15T09:12:38.393Z,5.00
2023-04-15T09:15:11.258Z,5.33
2023-04-15T09:17:45.828Z,7.13
2023-04-15T09:20:18.929Z,6.40
2023-04-15T09:22:50.184Z,5.83
2023-04-15T09:25:30.058Z,5.10
2023-04-15T09:28:04.546Z,4.90
2023-04-15T09:30:33.608Z,5.00
2023-04-15T09:33:08.648Z,4.93
2023-04-15T09:35:37.188Z,5.43
2023-04-15T09:38:10.730Z,4.30
2023-04-15T09:40:42.558Z,3.87
2023-04-15T09:43:14.351Z,4.10
2023-04-15T09:45:54.393Z,4.90
2023-04-15T09:48:28.213Z,5.23
2023-04-15T09:51:01.466Z,5.07
2023-04-15T09:53:31.852Z,5.20
2023-04-15T09:56:02.761Z,5.40
2023-04-15T09:58:37.612Z,5.50
2023-04-15T10:01:09.221Z,5.67
2023-04-15T10:03:42.499Z,5.97
2023-04-15T10:06:11.128Z,6.90
2023-04-15T10:08:40.140Z,7.30
2023-04-15T10:11:08.765Z,7.70
2023-04-15T10:13:38.453Z,6.77
2023-04-15T10:16:19.591Z,7.10
2023-04-15T10:18:56.174Z,6.73
2023-04-15T10:21:24.863Z,6.43
2023-04-15T10:23:53.658Z,7.17
2023-04-15T10:26:22.280Z,7.00
2023-04-15T10:28:52.554Z,6.93
2023-04-15T10:31:21.247Z,7.43
2023-04-15T10:33:56.513Z,6.07
2023-04-15T10:36:30.901Z,5.90
2023-04-15T10:39:04.762Z,5.53
2023-04-15T10:41:47.257Z,4.87
2023-04-15T10:44:19.766Z,4.77
2023-04-15T10:46:55.760Z,4.93
2023-04-15T10:49:31.136Z,5.60
2023-04-15T10:52:24.207Z,6.00
2023-04-15T10:55:33.775Z,5.47
2023-04-15T10:58:09.235Z,5.40
2023-04-15T11:00:41.721Z,4.70
2023-04-15T11:03:40.712Z,5.40
2023-04-15T11:06:14.949Z,5.47
2023-04-15T11:09:07.588Z,5.30
2023-04-15T11:12:13.531Z,4.50
2023-04-15T11:14:51.260Z,5.07
2023-04-15T11:17:32.424Z,4.53
2023-04-15T11:20:02.103Z,4.73
2023-04-15T11:22:30.302Z,5.60
2023-04-15T11:24:58.655Z,6.43
2023-04-15T11:27:26.629Z,6.10
2023-04-15T11:30:01.729Z,4.83
2023-04-15T11:32:46.907Z,5.10
2023-04-15T11:35:21.839Z,5.60
2023-04-15T11:38:10.730Z,4.83
2023-04-15T11:40:48.923Z,5.03
2023-04-15T11:43:37.001Z,7.27
2023-04-15T11:46:05.794Z,5.40
2023-04-15T11:48:37.300Z,4.43
2023-04-15T11:51:08.136Z,5.43
2023-04-15T11:53:52.212Z,5.10
2023-04-15T11:56:27.738Z,4.87
2023-04-15T11:59:00.330Z,4.87
2023-04-15T12:01:43.599Z,4.90
2023-04-15T12:04:25.557Z,6.47
2023-04-15T12:07:08.138Z,5.87
2023-04-15T12:09:45.575Z,4.77
2023-04-15T12:12:20.975Z,5.60
2023-04-15T12:14:59.542Z,4.37
2023-04-15T12:17:51.313Z,4.57
2023-04-15T12:20:27.265Z,3.87
2023-04-15T12:23:06.046Z,4.70
2023-04-15T12:25:37.253Z,4.23
2023-04-15T12:28:14.112Z,4.57
2023-04-15T12:30:54.638Z,4.10
2023-04-15T12:33:22.665Z,4.13
2023-04-15T12:35:50.523Z,4.90
2023-04-15T12:38:18.341Z,4.50
2023-04-15T12:40:48.079Z,5.40
2023-04-15T12:43:15.948Z,5.43
2023-04-15T12:45:43.848Z,4.50
2023-04-15T12:48:11.633Z,4.20
2023-04-15T12:50:39.328Z,4.20
2023-04-15T12:53:07.285Z,4.60
2023-04-15T12:55:35.208Z,5.33
2023-04-15T12:58:03.019Z,5.83
2023-04-15T13:00:30.873Z,5.00
2023-04-15T13:02:58.584Z,4.77
2023-04-15T13:05:26.472Z,5.10
2023-04-15T13:07:54.193Z,5.13
2023-04-15T13:10:27.520Z,5.60
2023-04-15T13:12:56.943Z,4.63
2023-04-15T13:15:26.072Z,3.90
2023-04-15T13:17:54.101Z,5.00
2023-04-15T13:20:22.388Z,3.97
2023-04-15T13:22:50.140Z,4.23
2023-04-15T13:25:17.882Z,4.57
2023-04-15T13:27:45.745Z,4.43
2023-04-15T13:30:13.763Z,4.70
2023-04-15T13:32:41.647Z,4.37
2023-04-15T13:35:09.843Z,4.30
2023-04-15T13:37:37.638Z,4.53
2023-04-15T13:40:07.604Z,4.40
2023-04-15T13:42:35.554Z,4.93
2023-04-15T13:45:03.571Z,5.23
2023-04-15T13:47:31.476Z,5.97
2023-04-15T13:49:59.343Z,4.60
2023-04-15T13:52:27.158Z,5.00
2023-04-15T13:55:07.483Z,4.97
2023-04-15T13:57:42.893Z,5.43
2023-04-15T14:00:12.139Z,5.53
2023-04-15T14:02:42.576Z,4.67
2023-04-15T14:05:11.770Z,6.00
2023-04-15T14:07:39.795Z,6.20
2023-04-15T14:10:08.929Z,5.27
2023-04-15T14:12:37.270Z,4.73
2023-04-15T14:15:07.589Z,6.13
2023-04-15T14:17:35.606Z,5.30
2023-04-15T14:20:04.064Z,5.20
2023-04-15T14:22:31.832Z,5.30
2023-04-15T14:24:59.777Z,5.47
2023-04-15T14:27:28.918Z,4.80
2023-04-15T14:29:59.921Z,4.87
2023-04-15T14:32:28.698Z,5.47
2023-04-15T14:34:56.842Z,5.93
2023-04-15T14:37:26.575Z,5.20
2023-04-15T14:39:56.924Z,5.50
2023-04-15T14:42:25.721Z,6.37
2023-04-15T14:44:55.886Z,5.63
2023-04-15T14:47:24.276Z,5.87
2023-04-15T14:49:52.105Z,5.30
2023-04-15T14:52:19.943Z,4.93
2023-04-15T14:54:47.686Z,6.07
2023-04-15T14:57:15.497Z,5.10
2023-04-15T14:59:43.584Z,5.87
2023-04-15T15:02:12.947Z,5.13
2023-04-15T15:04:43.189Z,5.33
2023-04-15T15:07:11.044Z,6.03
2023-04-15T15:09:38.781Z,5.50
2023-04-15T15:12:06.752Z,5.40
2023-04-15T15:14:35.236Z,5.40
2023-04-15T15:17:03.060Z,6.43
2023-04-15T15:19:31.043Z,5.17
2023-04-15T15:21:58.805Z,5.43
2023-04-15T15:24:26.854Z,6.70
2023-04-15T15:26:54.888Z,5.17
2023-04-15T15:29:23.319Z,4.60
2023-04-15T15:31:51.173Z,6.27
2023-04-15T15:34:18.899Z,5.67
2023-04-15T15:36:46.688Z,5.20
2023-04-15T15:39:14.602Z,4.97
2023-04-15T15:41:42.680Z,4.80
2023-04-15T15:44:10.615Z,4.87
2023-04-15T15:46:38.696Z,5.20
2023-04-15T15:49:06.575Z,4.70
2023-04-15T15:51:34.934Z,4.80
2023-04-15T15:54:02.720Z,4.27
2023-04-15T15:56:30.748Z,5.13
2023-04-15T15:58:58.432Z,4.60
2023-04-15T16:01:26.683Z,5.53
2023-04-15T16:03:55.073Z,4.10
2023-04-15T16:06:23.396Z,5.33
2023-04-15T16:08:51.126Z,5.43
2023-04-15T16:11:19.116Z,5.90
2023-04-15T16:13:46.982Z,5.63
2023-04-15T16:16:15.221Z,5.60
2023-04-15T16:18:42.987Z,4.77
2023-04-15T16:21:11.036Z,5.20
2023-04-15T16:23:39.490Z,6.00
2023-04-15T16:26:07.206Z,6.70
2023-04-15T16:28:34.981Z,4.57
2023-04-15T16:31:02.933Z,4.90
2023-04-15T16:33:30.728Z,5.00
2023-04-15T16:35:58.560Z,6.10
2023-04-15T16:38:26.489Z,4.43
2023-04-15T16:40:59.015Z,5.53
2023-04-15T16:43:28.278Z,5.00
2023-04-15T16:45:56.086Z,5.83
2023-04-15T16:48:24.048Z,5.50
2023-04-15T16:50:51.810Z,5.67
2023-04-15T16:53:19.775Z,4.87
2023-04-15T16:55:47.584Z,4.60
2023-04-15T16:58:15.546Z,4.70
2023-04-15T17:00:43.535Z,4.53
2023-04-15T17:03:11.466Z,4.00
2023-04-15T17:05:39.728Z,4.60
2023-04-15T17:08:08.545Z,4.97
2023-04-15T17:10:37.110Z,3.60
2023-04-15T17:13:04.956Z,4.83
2023-04-15T17:15:32.597Z,4.80
2023-04-15T17:18:00.659Z,4.30
2023-04-15T17:20:28.508Z,5.00
2023-04-15T17:22:56.532Z,4.57
2023-04-15T17:25:24.321Z,4.37
2023-04-15T17:27:52.259Z,3.63
2023-04-15T17:30:20.539Z,4.20
2023-04-15T17:32:48.373Z,4.37
2023-04-15T17:35:16.459Z,4.70
2023-04-15T17:37:44.327Z,5.43
2023-04-15T17:40:13.933Z,5.10
2023-04-15T17:42:41.811Z,5.93
2023-04-15T17:45:10.899Z,6.10
2023-04-15T17:47:38.794Z,6.60
2023-04-15T17:50:08.938Z,6.03
2023-04-15T17:52:36.766Z,6.50
2023-04-15T17:55:05.312Z,7.43
2023-04-15T17:57:33.194Z,7.80
2023-04-15T18:00:01.044Z,8.87
2023-04-15T18:02:29.162Z,7.13
2023-04-15T18:04:57.508Z,7.07
2023-04-15T18:07:25.807Z,8.00
2023-04-15T18:09:56.094Z,7.90
2023-04-15T18:12:24.050Z,7.40
2023-04-15T18:14:52.169Z,7.13
2023-04-15T18:17:20.708Z,8.10
2023-04-15T18:19:48.676Z,7.27
2023-04-15T18:22:16.818Z,7.30
2023-04-15T18:24:44.670Z,7.53
2023-04-15T18:27:12.489Z,8.20
2023-04-15T18:29:40.249Z,6.20
2023-04-15T18:32:08.187Z,7.03
2023-04-15T18:34:36.233Z,8.63
2023-04-15T18:37:05.507Z,8.70
2023-04-15T18:39:33.346Z,8.60
2023-04-15T18:42:02.196Z,9.17
2023-04-15T18:44:30.167Z,8.93
2023-04-15T18:46:58.191Z,8.60
2023-04-15T18:49:27.548Z,7.37
2023-04-15T18:51:55.708Z,7.10
2023-04-15T18:54:23.635Z,7.57
2023-04-15T18:56:52.073Z,7.60
2023-04-15T18:59:29.041Z,8.10
2023-04-15T19:02:00.319Z,7.67
2023-04-15T19:04:31.536Z,7.57
2023-04-15T19:06:59.672Z,7.10
2023-04-15T19:09:29.549Z,6.87
2023-04-15T19:11:57.759Z,6.53
2023-04-15T19:14:25.534Z,7.53
2023-04-15T19:16:53.366Z,6.90
2023-04-15T19:19:21.256Z,8.00
2023-04-15T19:21:50.435Z,7.63
2023-04-15T19:24:19.893Z,8.10
2023-04-15T19:26:51.275Z,8.13
2023-04-15T19:29:19.148Z,8.60
2023-04-15T19:31:47.054Z,8.23
2023-04-15T19:34:15.105Z,9.00
2023-04-15T19:36:43.355Z,10.10
2023-04-15T19:39:11.545Z,8.70
2023-04-15T19:41:39.513Z,8.23
2023-04-15T19:44:07.549Z,8.70
2023-04-15T19:46:35.550Z,9.27
2023-04-15T19:49:03.632Z,9.00
2023-04-15T19:51:31.996Z,8.70
2023-04-15T19:53:59.962Z,8.80
2023-04-15T19:56:28.297Z,8.13
2023-04-15T19:58:56.083Z,8.90
2023-04-15T20:01:24.057Z,8.53
2023-04-15T20:03:54.795Z,9.97
2023-04-15T20:06:22.843Z,8.87
2023-04-15T20:08:50.981Z,8.77
2023-04-15T20:11:19.144Z,8.80
2023-04-15T20:13:47.081Z,9.87
2023-04-15T20:16:14.791Z,9.40
2023-04-15T20:18:42.578Z,10.30
2023-04-15T20:21:10.850Z,10.70
2023-04-15T20:23:38.941Z,9.80
2023-04-15T20:26:07.311Z,11.00
2023-04-15T20:28:35.474Z,10.40
2023-04-15T20:31:03.948Z,10.20
2023-04-15T20:33:31.698Z,10.80
2023-04-15T20:35:59.899Z,9.97
2023-04-15T20:38:27.614Z,11.27
2023-04-15T20:40:55.946Z,11.00
2023-04-15T20:43:24.539Z,11.70
2023-04-15T20:45:54.338Z,9.90
2023-04-15T20:48:23.071Z,11.97
2023-04-15T20:50:51.761Z,12.30
2023-04-15T20:53:19.867Z,12.40
2023-04-15T20:55:47.744Z,15.67
2023-04-15T20:58:15.502Z,12.50
2023-04-15T21:00:43.311Z,12.07
2023-04-15T21:03:12.042Z,11.80
2023-04-15T21:05:40.100Z,11.63
2023-04-15T21:08:08.394Z,11.47
2023-04-15T21:10:36.533Z,10.33
2023-04-15T21:13:04.438Z,11.27
2023-04-15T21:15:32.306Z,12.67
2023-04-15T21:18:00.265Z,13.57
2023-04-15T21:20:28.319Z,12.20
2023-04-15T21:22:56.156Z,12.30
2023-04-15T21:25:23.911Z,12.77
2023-04-15T21:27:51.718Z,11.20
2023-04-15T21:30:19.774Z,12.03
2023-04-15T21:32:47.408Z,12.50
2023-04-15T21:35:15.241Z,11.80
2023-04-15T21:37:43.001Z,13.13
2023-04-15T21:40:11.781Z,13.67
2023-04-15T21:42:39.626Z,11.97
2023-04-15T21:45:08.520Z,12.63
2023-04-15T21:48:05.800Z,14.00
2023-04-15T21:50:24.314Z,10.90
2023-04-15T21:52:52.207Z,13.73
2023-04-15T21:55:21.711Z,10.93
2023-04-15T21:57:49.529Z,14.10
2023-04-15T22:00:17.626Z,14.97
2023-04-15T22:02:45.729Z,14.60
2023-04-15T22:05:13.569Z,14.40
2023-04-15T22:07:41.872Z,13.10
2023-04-15T22:10:10.892Z,13.60
2023-04-15T22:12:42.140Z,13.70
2023-04-15T22:15:10.482Z,16.60
2023-04-15T22:17:38.185Z,17.13
2023-04-15T22:20:07.414Z,15.60
2023-04-15T22:22:37.748Z,14.70
2023-04-15T22:25:13.037Z,15.70
2023-04-15T22:27:41.094Z,14.53
2023-04-15T22:30:11.953Z,15.07
2023-04-15T22:32:40.097Z,15.80
2023-04-15T22:35:08.952Z,16.47
2023-04-15T22:37:36.701Z,14.57
2023-04-15T22:40:04.943Z,14.10
2023-04-15T22:42:32.642Z,14.57
2023-04-15T22:45:00.474Z,15.63
2023-04-15T22:47:28.446Z,16.23
2023-04-15T22:49:56.446Z,15.07
2023-04-15T22:52:30.716Z,15.63
2023-04-15T22:54:59.840Z,13.80
2023-04-15T22:57:29.220Z,15.33
2023-04-15T22:59:57.166Z,14.97
2023-04-15T23:02:25.391Z,14.93
2023-04-15T23:04:53.512Z,14.50
2023-04-15T23:07:22.804Z,15.63
2023-04-15T23:09:50.749Z,16.07
2023-04-15T23:12:18.906Z,15.80
2023-04-15T23:14:46.549Z,15.30
2023-04-15T23:17:14.360Z,14.67
2023-04-15T23:19:42.039Z,16.47
2023-04-15T23:22:12.117Z,13.97
2023-04-15T23:24:39.808Z,12.60
2023-04-15T23:27:08.022Z,14.63
2023-04-15T23:29:36.494Z,15.37
2023-04-15T23:32:04.554Z,13.50
2023-04-15T23:34:32.484Z,14.20
2023-04-15T23:37:00.344Z,16.13
2023-04-15T23:39:28.079Z,16.87
2023-04-15T23:41:57.171Z,15.20
2023-04-15T23:44:25.048Z,17.23
2023-04-15T23:46:52.826Z,16.07
2023-04-15T23:49:20.750Z,16.10
2023-04-15T23:51:48.652Z,15.90
2023-04-15T23:54:16.398Z,16.10
2023-04-15T23:56:44.009Z,15.73
2023-04-15T23:59:11.861Z,16.93
